createdAt,value
2018-08-11T00:00:21.837Z,33.3
2018-08-11T00:01:24.036Z,33.3
2018-08-11T00:02:26.222Z,33.3
2018-08-11T00:03:28.423Z,33.3
2018-08-11T00:04:30.866Z,33.3
2018-08-11T00:05:32.768Z,33.3
2018-08-11T00:06:35.227Z,33.3
2018-08-11T00:07:37.677Z,33.3
2018-08-11T00:08:39.862Z,33.3
2018-08-11T00:09:41.733Z,33.3
2018-08-11T00:10:43.880Z,33.3
2018-08-11T00:11:45.751Z,33.3
2018-08-11T00:12:47.667Z,33.3
2018-08-11T00:13:50.107Z,33.3
2018-08-11T00:14:52.019Z,33.3
2018-08-11T00:15:54.457Z,33.3
2018-08-11T00:16:56.113Z,33.3
2018-08-11T00:17:58.556Z,33.4
2018-08-11T00:19:00.423Z,33.4
2018-08-11T00:20:02.600Z,33.4
2018-08-11T00:21:04.766Z,33.4
2018-08-11T00:22:07.225Z,33.4
2018-08-11T00:23:09.657Z,33.4
2018-08-11T00:24:11.565Z,33.4
2018-08-11T00:25:13.720Z,33.4
2018-08-11T00:26:16.157Z,33.4
2018-08-11T00:27:18.322Z,33.4
2018-08-11T00:28:20.758Z,33.4
2018-08-11T00:29:23.216Z,33.4
2018-08-11T00:30:25.664Z,33.4
2018-08-11T00:31:28.112Z,33.4
2018-08-11T00:32:29.728Z,33.4
2018-08-11T00:33:31.890Z,33.4
2018-08-11T00:34:34.345Z,33.4
2018-08-11T00:35:36.786Z,33.4
2018-08-11T00:36:39.235Z,33.4
2018-08-11T00:37:41.686Z,33.4
2018-08-11T00:38:43.577Z,33.4
2018-08-11T00:39:46.021Z,33.4
2018-08-11T00:40:47.932Z,33.4
2018-08-11T00:41:50.395Z,33.4
2018-08-11T00:42:52.327Z,33.4
2018-08-11T00:43:54.480Z,33.4
2018-08-11T00:44:56.106Z,33.4
2018-08-11T00:45:58.284Z,33.4
2018-08-11T00:47:00.449Z,33.4
2018-08-11T00:48:02.639Z,33.4
2018-08-11T00:49:04.816Z,33.4
2018-08-11T00:50:06.990Z,33.4
2018-08-11T00:51:09.437Z,33.4
2018-08-11T00:52:11.876Z,33.4
2018-08-11T00:53:14.356Z,33.4
2018-08-11T00:54:16.528Z,33.4
2018-08-11T00:55:18.968Z,33.4
2018-08-11T00:56:21.438Z,33.5
2018-08-11T00:57:23.884Z,33.4
2018-08-11T00:58:26.045Z,33.5
2018-08-11T00:59:27.937Z,33.5
2018-08-11T01:00:30.099Z,33.5
2018-08-11T01:01:32.554Z,33.5
2018-08-11T01:02:34.737Z,33.5
2018-08-11T01:03:37.191Z,33.5
2018-08-11T01:04:39.406Z,33.5
2018-08-11T01:05:41.299Z,33.5
2018-08-11T01:06:43.487Z,33.5
2018-08-11T01:07:45.643Z,33.5
2018-08-11T01:08:47.560Z,33.5
2018-08-11T01:09:50.005Z,33.5
2018-08-11T01:10:52.634Z,33.5
2018-08-11T01:11:54.900Z,33.5
2018-08-11T01:12:57.072Z,33.5
2018-08-11T01:13:59.524Z,33.5
2018-08-11T01:15:01.973Z,33.5
2018-08-11T01:16:04.421Z,33.5
2018-08-11T01:17:06.315Z,33.5
2018-08-11T01:18:08.485Z,33.5
2018-08-11T01:19:10.938Z,33.5
2018-08-11T01:20:12.860Z,33.5
2018-08-11T01:21:15.306Z,33.5
2018-08-11T01:22:17.472Z,33.5
2018-08-11T01:23:19.096Z,33.5
2018-08-11T01:24:21.537Z,33.5
2018-08-11T01:25:23.996Z,33.5
2018-08-11T01:26:26.177Z,33.5
2018-08-11T01:27:28.633Z,33.5
2018-08-11T01:28:30.554Z,33.5
2018-08-11T01:29:32.758Z,33.5
2018-08-11T01:30:35.213Z,33.5
2018-08-11T01:31:37.380Z,33.5
2018-08-11T01:32:38.988Z,33.5
2018-08-11T01:33:41.437Z,33.5
2018-08-11T01:34:43.894Z,33.5
2018-08-11T01:35:46.072Z,33.5
2018-08-11T01:36:48.524Z,33.5
2018-08-11T01:37:50.716Z,33.5
2018-08-11T01:38:52.893Z,33.5
2018-08-11T01:39:55.371Z,33.5
2018-08-11T01:40:57.552Z,33.5
2018-08-11T01:41:59.721Z,33.5
2018-08-11T01:43:01.621Z,33.5
2018-08-11T01:44:03.827Z,33.5
2018-08-11T01:45:06.070Z,33.5
2018-08-11T01:46:08.546Z,33.5
2018-08-11T01:47:10.730Z,33.5
2018-08-11T01:48:12.646Z,33.5
2018-08-11T01:49:14.557Z,33.5
2018-08-11T01:50:16.437Z,33.5
2018-08-11T01:51:18.894Z,33.5
2018-08-11T01:52:21.349Z,33.5
2018-08-11T01:53:23.517Z,33.5
2018-08-11T01:54:25.122Z,33.5
2018-08-11T01:55:27.287Z,33.5
2018-08-11T01:56:29.735Z,33.5
2018-08-11T01:57:31.903Z,33.5
2018-08-11T01:58:33.777Z,33.5
2018-08-11T01:59:35.949Z,33.5
2018-08-11T02:00:38.130Z,33.5
2018-08-11T02:01:40.565Z,33.5
2018-08-11T02:02:43.007Z,33.5
2018-08-11T02:03:44.887Z,33.5
2018-08-11T02:04:47.353Z,33.5
2018-08-11T02:05:49.527Z,33.5
2018-08-11T02:06:51.186Z,33.5
2018-08-11T02:07:53.376Z,33.5
2018-08-11T02:08:55.832Z,33.5
2018-08-11T02:09:57.729Z,33.5
2018-08-11T02:10:59.896Z,33.5
2018-08-11T02:12:02.056Z,33.5
2018-08-11T02:13:04.241Z,33.5
2018-08-11T02:14:06.440Z,33.5
2018-08-11T02:15:08.345Z,33.5
2018-08-11T02:16:10.796Z,33.5
2018-08-11T02:17:12.704Z,33.5
2018-08-11T02:18:14.616Z,33.5
2018-08-11T02:19:17.080Z,33.5
2018-08-11T02:20:19.523Z,33.5
2018-08-11T02:21:21.675Z,33.5
2018-08-11T02:22:24.145Z,33.5
2018-08-11T02:23:26.577Z,33.5
2018-08-11T02:24:28.477Z,33.5
2018-08-11T02:25:30.678Z,33.5
2018-08-11T02:26:33.116Z,33.5
2018-08-11T02:27:35.297Z,33.5
2018-08-11T02:28:37.446Z,33.5
2018-08-11T02:29:39.902Z,33.5
2018-08-11T02:30:42.071Z,33.5
2018-08-11T02:31:44.517Z,33.5
2018-08-11T02:32:46.400Z,33.5
2018-08-11T02:33:48.583Z,33.5
2018-08-11T02:34:50.752Z,33.5
2018-08-11T02:35:53.199Z,33.5
2018-08-11T02:36:55.084Z,33.5
2018-08-11T02:37:57.539Z,33.5
2018-08-11T02:38:59.722Z,33.5
2018-08-11T02:40:01.900Z,33.5
2018-08-11T02:41:04.067Z,33.5
2018-08-11T02:42:06.255Z,33.5
2018-08-11T02:43:08.418Z,33.5
2018-08-11T02:44:10.875Z,33.5
2018-08-11T02:45:13.371Z,33.5
2018-08-11T02:46:15.531Z,33.5
2018-08-11T02:47:17.968Z,33.5
2018-08-11T02:48:20.135Z,33.5
2018-08-11T02:49:22.586Z,33.5
2018-08-11T02:50:24.504Z,33.5
2018-08-11T02:51:26.681Z,33.5
2018-08-11T02:52:29.128Z,33.5
2018-08-11T02:53:31.574Z,33.5
2018-08-11T02:54:33.716Z,33.5
2018-08-11T02:55:36.158Z,33.5
2018-08-11T02:56:38.613Z,33.5
2018-08-11T02:57:40.796Z,33.5
2018-08-11T02:58:42.943Z,33.5
2018-08-11T02:59:45.119Z,33.5
2018-08-11T03:00:47.032Z,33.5
2018-08-11T03:01:49.477Z,33.5
2018-08-11T03:02:51.916Z,33.5
2018-08-11T03:03:54.098Z,33.5
2018-08-11T03:04:56.294Z,33.5
2018-08-11T03:05:58.756Z,33.5
2018-08-11T03:07:00.936Z,33.5
2018-08-11T03:08:03.125Z,33.5
2018-08-11T03:09:05.297Z,33.5
2018-08-11T03:10:07.747Z,33.5
2018-08-11T03:11:10.186Z,33.5
2018-08-11T03:12:12.372Z,33.5
2018-08-11T03:13:14.546Z,33.5
2018-08-11T03:14:16.987Z,33.5
2018-08-11T03:15:19.188Z,33.4
2018-08-11T03:16:21.366Z,33.4
2018-08-11T03:17:23.536Z,33.4
2018-08-11T03:18:25.189Z,33.4
2018-08-11T03:19:27.333Z,33.4
2018-08-11T03:20:29.517Z,33.4
2018-08-11T03:21:31.976Z,33.4
2018-08-11T03:22:34.422Z,33.4
2018-08-11T03:23:36.584Z,33.4
2018-08-11T03:24:38.744Z,33.4
2018-08-11T03:25:40.637Z,33.3
2018-08-11T03:26:42.815Z,33.3
2018-08-11T03:27:44.687Z,33.3
2018-08-11T03:28:46.285Z,33.3
2018-08-11T03:29:48.455Z,33.3
2018-08-11T03:30:50.900Z,33.3
2018-08-11T03:31:53.073Z,33.3
2018-08-11T03:32:55.522Z,33.3
2018-08-11T03:33:57.962Z,33.3
2018-08-11T03:34:59.870Z,33.3
2018-08-11T03:36:02.051Z,33.3
2018-08-11T03:37:04.190Z,33.3
2018-08-11T03:38:06.653Z,33.2
2018-08-11T03:39:08.866Z,33.2
2018-08-11T03:40:11.306Z,33.2
2018-08-11T03:41:13.197Z,33.2
2018-08-11T03:42:15.379Z,33.2
2018-08-11T03:43:17.288Z,33.2
2018-08-11T03:44:19.157Z,33.2
2018-08-11T03:45:21.604Z,33.2
2018-08-11T03:46:23.489Z,33.2
2018-08-11T03:47:25.678Z,33.2
2018-08-11T03:48:27.868Z,33.2
2018-08-11T03:49:30.052Z,33.2
2018-08-11T03:50:32.216Z,33.2
2018-08-11T03:51:34.668Z,33.2
2018-08-11T03:52:37.409Z,33.2
2018-08-11T03:53:40.034Z,33.2
2018-08-11T03:54:42.206Z,33.2
2018-08-11T03:55:44.659Z,33.2
2018-08-11T03:56:47.106Z,33.2
2018-08-11T03:57:49.554Z,33.1
2018-08-11T03:58:51.996Z,33.1
2018-08-11T03:59:54.176Z,33.1
2018-08-11T04:00:56.354Z,33.1
2018-08-11T04:01:58.805Z,33.1
2018-08-11T04:03:00.971Z,33.1
2018-08-11T04:04:02.850Z,33.1
2018-08-11T04:05:05.065Z,33.1
2018-08-11T04:06:07.517Z,33.1
2018-08-11T04:07:09.700Z,33.1
2018-08-11T04:08:12.149Z,33.1
2018-08-11T04:09:14.608Z,33.1
2018-08-11T04:10:16.770Z,33.1
2018-08-11T04:11:19.207Z,33.1
2018-08-11T04:12:21.361Z,33.1
2018-08-11T04:13:23.820Z,33.1
2018-08-11T04:14:25.447Z,33.1
2018-08-11T04:15:27.381Z,33.1
2018-08-11T04:16:29.823Z,33.1
2018-08-11T04:17:31.750Z,33.1
2018-08-11T04:18:33.455Z,33.1
2018-08-11T04:19:35.897Z,33.1
2018-08-11T04:20:38.070Z,33.1
2018-08-11T04:21:39.995Z,33.1
2018-08-11T04:22:42.174Z,33.1
2018-08-11T04:23:44.625Z,33.1
2018-08-11T04:24:47.075Z,33.1
2018-08-11T04:25:49.522Z,33.1
2018-08-11T04:26:51.970Z,33
2018-08-11T04:27:54.405Z,33.1
2018-08-11T04:28:56.587Z,33.1
2018-08-11T04:29:58.768Z,33
2018-08-11T04:31:01.216Z,33
2018-08-11T04:32:03.390Z,33.1
2018-08-11T04:33:05.844Z,33.1
2018-08-11T04:34:08.297Z,33
2018-08-11T04:35:10.735Z,33.1
2018-08-11T04:36:12.907Z,33
2018-08-11T04:37:15.086Z,33
2018-08-11T04:38:17.534Z,33.1
2018-08-11T04:39:19.975Z,33
2018-08-11T04:40:22.147Z,33.1
2018-08-11T04:41:24.314Z,33
2018-08-11T04:42:26.496Z,33
2018-08-11T04:43:28.639Z,33
2018-08-11T04:44:30.797Z,33
2018-08-11T04:45:32.706Z,33
2018-08-11T04:46:34.862Z,33
2018-08-11T04:47:37.045Z,33
2018-08-11T04:48:39.207Z,33
2018-08-11T04:49:41.659Z,33
2018-08-11T04:50:43.851Z,33
2018-08-11T04:51:46.295Z,33
2018-08-11T04:52:48.471Z,33
2018-08-11T04:53:50.665Z,33
2018-08-11T04:54:53.110Z,33
2018-08-11T04:55:55.556Z,33
2018-08-11T04:56:58.015Z,33
2018-08-11T04:57:59.917Z,33
2018-08-11T04:59:02.365Z,33
2018-08-11T05:00:04.806Z,33
2018-08-11T05:01:06.714Z,33
2018-08-11T05:02:09.167Z,33
2018-08-11T05:03:11.390Z,33
2018-08-11T05:04:13.839Z,33
2018-08-11T05:05:15.748Z,33
2018-08-11T05:06:17.914Z,33
2018-08-11T05:07:20.369Z,33
2018-08-11T05:08:22.821Z,33
2018-08-11T05:09:25.264Z,33
2018-08-11T05:10:27.718Z,33
2018-08-11T05:11:30.163Z,33
2018-08-11T05:12:32.609Z,33
2018-08-11T05:13:34.778Z,33
2018-08-11T05:14:36.695Z,33
2018-08-11T05:15:38.888Z,33
2018-08-11T05:16:41.322Z,33
2018-08-11T05:17:43.765Z,33
2018-08-11T05:18:46.222Z,33
2018-08-11T05:19:48.473Z,33
2018-08-11T05:20:50.693Z,33
2018-08-11T05:21:52.850Z,33
2018-08-11T05:22:55.288Z,33
2018-08-11T05:23:57.457Z,33
2018-08-11T05:24:59.330Z,33
2018-08-11T05:26:01.528Z,33
2018-08-11T05:27:03.975Z,33
2018-08-11T05:28:06.155Z,33
2018-08-11T05:29:08.329Z,33
2018-08-11T05:30:10.783Z,33
2018-08-11T05:31:12.671Z,33
2018-08-11T05:32:15.128Z,33
2018-08-11T05:33:17.411Z,33
2018-08-11T05:34:20.246Z,33
2018-08-11T05:35:22.436Z,33
2018-08-11T05:36:24.610Z,32.9
2018-08-11T05:37:27.048Z,32.9
2018-08-11T05:38:28.956Z,32.9
2018-08-11T05:39:31.421Z,32.9
2018-08-11T05:40:33.607Z,32.9
2018-08-11T05:41:35.946Z,32.9
2018-08-11T05:42:37.940Z,32.9
2018-08-11T05:43:40.382Z,32.9
2018-08-11T05:44:42.836Z,32.9
2018-08-11T05:45:45.017Z,32.9
2018-08-11T05:46:47.489Z,32.9
2018-08-11T05:47:49.388Z,32.9
2018-08-11T05:48:51.580Z,32.9
2018-08-11T05:49:54.017Z,32.9
2018-08-11T05:50:56.475Z,32.9
2018-08-11T05:51:58.917Z,32.9
2018-08-11T05:53:00.821Z,32.9
2018-08-11T05:54:03.277Z,32.9
2018-08-11T05:55:05.509Z,32.9
2018-08-11T05:56:07.763Z,32.9
2018-08-11T05:57:09.926Z,32.9
2018-08-11T05:58:11.566Z,32.9
2018-08-11T05:59:13.746Z,32.9
2018-08-11T06:00:15.648Z,32.9
2018-08-11T06:01:17.828Z,32.9
2018-08-11T06:02:20.009Z,32.9
2018-08-11T06:03:22.221Z,32.9
2018-08-11T06:04:24.676Z,32.9
2018-08-11T06:05:26.583Z,32.9
2018-08-11T06:06:28.220Z,32.9
2018-08-11T06:07:30.677Z,32.9
2018-08-11T06:08:32.821Z,32.9
2018-08-11T06:09:35.314Z,32.9
2018-08-11T06:10:38.066Z,32.9
2018-08-11T06:11:40.453Z,32.9
2018-08-11T06:12:42.632Z,32.9
2018-08-11T06:13:45.077Z,32.9
2018-08-11T06:14:47.529Z,32.9
2018-08-11T06:15:49.676Z,32.9
2018-08-11T06:16:52.118Z,32.9
2018-08-11T06:17:54.277Z,32.9
2018-08-11T06:18:55.893Z,32.9
2018-08-11T06:19:58.350Z,32.9
2018-08-11T06:21:00.282Z,32.9
2018-08-11T06:22:02.529Z,32.9
2018-08-11T06:23:04.721Z,32.9
2018-08-11T06:24:07.163Z,32.9
2018-08-11T06:25:09.640Z,32.9
2018-08-11T06:26:11.805Z,32.9
2018-08-11T06:27:13.691Z,32.9
2018-08-11T06:28:16.147Z,32.9
2018-08-11T06:29:18.595Z,32.9
2018-08-11T06:30:21.045Z,32.9
2018-08-11T06:31:23.307Z,32.9
2018-08-11T06:32:25.707Z,32.8
2018-08-11T06:33:28.147Z,32.9
2018-08-11T06:34:30.605Z,32.9
2018-08-11T06:35:32.477Z,32.9
2018-08-11T06:36:34.924Z,32.8
2018-08-11T06:37:36.828Z,32.8
2018-08-11T06:38:38.741Z,32.9
2018-08-11T06:39:41.186Z,32.9
2018-08-11T06:40:44.060Z,32.9
2018-08-11T06:41:45.706Z,32.8
2018-08-11T06:42:47.898Z,32.9
2018-08-11T06:43:50.091Z,32.8
2018-08-11T06:44:51.991Z,32.8
2018-08-11T06:45:54.180Z,32.9
2018-08-11T06:46:56.766Z,32.9
2018-08-11T06:47:58.979Z,32.8
2018-08-11T06:49:00.857Z,32.9
2018-08-11T06:50:03.305Z,32.9
2018-08-11T06:51:05.212Z,32.8
2018-08-11T06:52:07.399Z,32.9
2018-08-11T06:53:09.840Z,32.9
2018-08-11T06:54:12.027Z,32.9
2018-08-11T06:55:14.476Z,32.9
2018-08-11T06:56:16.651Z,32.8
2018-08-11T06:57:18.801Z,32.9
2018-08-11T06:58:20.685Z,32.9
2018-08-11T06:59:22.586Z,32.9
2018-08-11T07:00:25.057Z,32.8
2018-08-11T07:01:27.224Z,32.8
2018-08-11T07:02:29.110Z,32.8
2018-08-11T07:03:31.032Z,32.8
2018-08-11T07:04:33.488Z,32.8
2018-08-11T07:05:35.656Z,32.8
2018-08-11T07:06:38.113Z,32.8
2018-08-11T07:07:40.026Z,32.8
2018-08-11T07:08:41.895Z,32.8
2018-08-11T07:09:44.069Z,32.8
2018-08-11T07:10:46.522Z,32.8
2018-08-11T07:11:48.437Z,32.8
2018-08-11T07:12:50.895Z,32.8
2018-08-11T07:13:53.357Z,32.8
2018-08-11T07:14:55.818Z,32.8
2018-08-11T07:15:58.268Z,32.8
2018-08-11T07:17:00.733Z,32.8
2018-08-11T07:18:03.174Z,32.8
2018-08-11T07:19:05.628Z,32.8
2018-08-11T07:20:08.077Z,32.8
2018-08-11T07:21:10.630Z,32.8
2018-08-11T07:22:12.832Z,32.8
2018-08-11T07:23:15.007Z,32.8
2018-08-11T07:24:17.179Z,32.8
2018-08-11T07:25:19.654Z,32.8
2018-08-11T07:26:21.970Z,32.8
2018-08-11T07:27:24.121Z,32.8
2018-08-11T07:28:26.305Z,32.8
2018-08-11T07:29:28.517Z,32.8
2018-08-11T07:30:30.690Z,32.8
2018-08-11T07:31:32.836Z,32.8
2018-08-11T07:32:35.012Z,32.8
2018-08-11T07:33:37.456Z,32.8
2018-08-11T07:34:39.903Z,32.8
2018-08-11T07:35:42.385Z,32.8
2018-08-11T07:36:45.084Z,32.8
2018-08-11T07:37:48.283Z,32.8
2018-08-11T07:38:51.431Z,32.8
2018-08-11T07:39:53.761Z,32.8
2018-08-11T07:40:55.997Z,32.8
2018-08-11T07:41:58.147Z,32.8
2018-08-11T07:43:00.331Z,32.8
2018-08-11T07:44:02.779Z,32.8
2018-08-11T07:45:05.227Z,32.8
2018-08-11T07:46:07.140Z,32.8
2018-08-11T07:47:09.578Z,32.8
2018-08-11T07:48:12.037Z,32.8
2018-08-11T07:49:14.194Z,32.8
2018-08-11T07:50:16.190Z,32.8
2018-08-11T07:51:18.162Z,32.8
2018-08-11T07:52:20.338Z,32.8
2018-08-11T07:53:22.506Z,32.8
2018-08-11T07:54:24.952Z,32.8
2018-08-11T07:55:27.134Z,32.8
2018-08-11T07:56:29.290Z,32.8
2018-08-11T07:57:31.468Z,32.8
2018-08-11T07:58:33.906Z,32.8
2018-08-11T07:59:36.352Z,32.8
2018-08-11T08:00:38.800Z,32.8
2018-08-11T08:01:41.257Z,32.8
2018-08-11T08:02:43.707Z,32.8
2018-08-11T08:03:46.147Z,32.8
2018-08-11T08:04:48.329Z,32.8
2018-08-11T08:05:50.777Z,32.8
2018-08-11T08:06:53.260Z,32.8
2018-08-11T08:07:54.924Z,32.8
2018-08-11T08:08:57.127Z,32.8
2018-08-11T08:09:59.300Z,32.8
2018-08-11T08:11:01.500Z,32.8
2018-08-11T08:12:03.674Z,32.8
2018-08-11T08:13:05.848Z,32.8
2018-08-11T08:14:08.032Z,32.8
2018-08-11T08:15:09.939Z,32.8
2018-08-11T08:16:12.391Z,32.8
2018-08-11T08:17:14.832Z,32.8
2018-08-11T08:18:17.293Z,32.8
2018-08-11T08:19:19.483Z,32.8
2018-08-11T08:20:21.670Z,32.8
2018-08-11T08:21:23.848Z,32.8
2018-08-11T08:22:26.050Z,32.8
2018-08-11T08:23:28.231Z,32.8
2018-08-11T08:24:30.686Z,32.8
2018-08-11T08:25:32.881Z,32.8
2018-08-11T08:26:36.014Z,32.8
2018-08-11T08:27:38.137Z,32.8
2018-08-11T08:28:40.318Z,32.8
2018-08-11T08:29:41.941Z,32.8
2018-08-11T08:30:44.387Z,32.8
2018-08-11T08:31:46.289Z,32.8
2018-08-11T08:32:48.216Z,32.8
2018-08-11T08:33:50.830Z,32.8
2018-08-11T08:34:53.110Z,32.8
2018-08-11T08:35:55.273Z,32.8
2018-08-11T08:36:57.455Z,32.8
2018-08-11T08:37:59.641Z,32.8
2018-08-11T08:39:02.100Z,32.8
2018-08-11T08:40:04.265Z,32.8
2018-08-11T08:41:06.445Z,32.8
2018-08-11T08:42:08.331Z,32.8
2018-08-11T08:43:10.527Z,32.8
2018-08-11T08:44:12.713Z,32.8
2018-08-11T08:45:14.895Z,32.8
2018-08-11T08:46:17.075Z,32.8
2018-08-11T08:47:19.316Z,32.8
2018-08-11T08:48:21.819Z,32.8
2018-08-11T08:49:24.276Z,32.8
2018-08-11T08:50:25.885Z,32.8
2018-08-11T08:51:28.358Z,32.8
2018-08-11T08:52:30.281Z,32.8
2018-08-11T08:53:32.788Z,32.8
2018-08-11T08:54:34.995Z,32.8
2018-08-11T08:55:37.442Z,32.8
2018-08-11T08:56:39.913Z,32.8
2018-08-11T08:57:42.084Z,32.8
2018-08-11T08:58:44.258Z,32.8
2018-08-11T08:59:46.740Z,32.8
2018-08-11T09:00:49.204Z,32.8
2018-08-11T09:01:51.653Z,32.8
2018-08-11T09:02:53.560Z,32.8
2018-08-11T09:03:56.010Z,32.8
2018-08-11T09:04:58.494Z,32.8
2018-08-11T09:06:00.982Z,32.8
2018-08-11T09:07:02.597Z,32.8
2018-08-11T09:08:04.749Z,32.8
2018-08-11T09:09:07.207Z,32.8
2018-08-11T09:10:09.083Z,32.8
2018-08-11T09:11:11.527Z,32.8
2018-08-11T09:12:13.710Z,32.8
2018-08-11T09:13:15.887Z,32.8
2018-08-11T09:14:18.081Z,32.8
2018-08-11T09:15:19.976Z,32.8
2018-08-11T09:16:22.424Z,32.8
2018-08-11T09:17:24.881Z,32.8
2018-08-11T09:18:26.757Z,32.8
2018-08-11T09:19:29.435Z,32.8
2018-08-11T09:20:31.726Z,32.8
2018-08-11T09:21:34.171Z,32.8
2018-08-11T09:22:36.072Z,32.7
2018-08-11T09:23:38.520Z,32.8
2018-08-11T09:24:40.696Z,32.8
2018-08-11T09:25:42.851Z,32.8
2018-08-11T09:26:45.020Z,32.8
2018-08-11T09:27:47.468Z,32.8
2018-08-11T09:28:49.685Z,32.8
2018-08-11T09:29:51.861Z,32.8
2018-08-11T09:30:54.047Z,32.8
2018-08-11T09:31:56.199Z,32.8
2018-08-11T09:32:58.379Z,32.8
2018-08-11T09:34:00.285Z,32.8
2018-08-11T09:35:02.727Z,32.8
2018-08-11T09:36:04.902Z,32.8
2018-08-11T09:37:07.350Z,32.8
2018-08-11T09:38:09.258Z,32.8
2018-08-11T09:39:11.413Z,32.7
2018-08-11T09:40:13.862Z,32.7
2018-08-11T09:41:16.322Z,32.8
2018-08-11T09:42:18.768Z,32.8
2018-08-11T09:43:20.684Z,32.8
2018-08-11T09:44:22.881Z,32.8
2018-08-11T09:45:25.023Z,32.8
2018-08-11T09:46:26.933Z,32.8
2018-08-11T09:47:29.108Z,32.8
2018-08-11T09:48:31.561Z,32.8
2018-08-11T09:49:33.753Z,32.8
2018-08-11T09:50:35.674Z,32.8
2018-08-11T09:51:37.573Z,32.8
2018-08-11T09:52:40.034Z,32.8
2018-08-11T09:53:42.453Z,32.8
2018-08-11T09:54:44.908Z,32.7
2018-08-11T09:55:47.089Z,32.8
2018-08-11T09:56:49.277Z,32.8
2018-08-11T09:57:51.471Z,32.8
2018-08-11T09:58:53.767Z,32.8
2018-08-11T09:59:55.912Z,32.7
2018-08-11T10:00:58.106Z,32.8
2018-08-11T10:02:00.292Z,32.8
2018-08-11T10:03:02.740Z,32.8
2018-08-11T10:04:04.639Z,32.8
2018-08-11T10:05:07.254Z,32.8
2018-08-11T10:06:09.327Z,32.8
2018-08-11T10:07:11.222Z,32.8
2018-08-11T10:08:13.388Z,32.8
2018-08-11T10:09:15.561Z,32.8
2018-08-11T10:10:18.016Z,32.8
2018-08-11T10:11:20.481Z,32.8
2018-08-11T10:12:22.678Z,32.7
2018-08-11T10:13:24.856Z,32.7
2018-08-11T10:14:27.027Z,32.8
2018-08-11T10:15:29.203Z,32.8
2018-08-11T10:16:31.120Z,32.7
2018-08-11T10:17:33.296Z,32.7
2018-08-11T10:18:36.066Z,32.8
2018-08-11T10:19:38.736Z,32.8
2018-08-11T10:20:41.207Z,32.8
2018-08-11T10:21:43.656Z,32.7
2018-08-11T10:22:45.555Z,32.8
2018-08-11T10:23:48.007Z,32.8
2018-08-11T10:24:50.451Z,32.8
2018-08-11T10:25:52.357Z,32.8
2018-08-11T10:26:54.797Z,32.7
2018-08-11T10:27:57.245Z,32.8
2018-08-11T10:28:59.695Z,32.7
2018-08-11T10:30:01.580Z,32.7
2018-08-11T10:31:03.754Z,32.7
2018-08-11T10:32:06.205Z,32.8
2018-08-11T10:33:08.394Z,32.7
2018-08-11T10:34:10.841Z,32.8
2018-08-11T10:35:13.288Z,32.7
2018-08-11T10:36:15.727Z,32.7
2018-08-11T10:37:18.181Z,32.7
2018-08-11T10:38:20.633Z,32.7
2018-08-11T10:39:23.090Z,32.7
2018-08-11T10:40:25.555Z,32.7
2018-08-11T10:41:28.020Z,32.7
2018-08-11T10:42:30.486Z,32.7
2018-08-11T10:43:32.391Z,32.7
2018-08-11T10:44:34.284Z,32.7
2018-08-11T10:45:36.186Z,32.7
2018-08-11T10:46:38.382Z,32.7
2018-08-11T10:47:40.822Z,32.7
2018-08-11T10:48:43.273Z,32.7
2018-08-11T10:49:45.725Z,32.7
2018-08-11T10:50:48.181Z,32.7
2018-08-11T10:51:50.334Z,32.7
2018-08-11T10:52:52.781Z,32.7
2018-08-11T10:53:54.941Z,32.7
2018-08-11T10:54:57.115Z,32.7
2018-08-11T10:55:59.116Z,32.7
2018-08-11T10:57:01.137Z,32.7
2018-08-11T10:58:03.327Z,32.7
2018-08-11T10:59:05.774Z,32.7
2018-08-11T11:00:08.235Z,32.7
2018-08-11T11:01:10.804Z,32.7
2018-08-11T11:02:13.120Z,32.8
2018-08-11T11:03:15.307Z,32.7
2018-08-11T11:04:17.754Z,32.7
2018-08-11T11:05:20.201Z,32.7
2018-08-11T11:06:22.098Z,32.7
2018-08-11T11:07:23.812Z,32.7
2018-08-11T11:08:26.522Z,32.7
2018-08-11T11:09:29.237Z,32.7
2018-08-11T11:10:31.427Z,32.7
2018-08-11T11:11:33.871Z,32.7
2018-08-11T11:12:36.036Z,32.7
2018-08-11T11:13:37.908Z,32.7
2018-08-11T11:14:39.830Z,32.7
2018-08-11T11:15:41.994Z,32.7
2018-08-11T11:16:44.169Z,32.7
2018-08-11T11:17:46.341Z,32.7
2018-08-11T11:18:48.793Z,32.7
2018-08-11T11:19:50.974Z,32.7
2018-08-11T11:20:53.225Z,32.7
2018-08-11T11:21:55.518Z,32.7
2018-08-11T11:22:57.697Z,32.7
2018-08-11T11:23:59.881Z,32.7
2018-08-11T11:25:02.332Z,32.7
2018-08-11T11:26:04.787Z,32.7
2018-08-11T11:27:06.962Z,32.7
2018-08-11T11:28:09.424Z,32.8
2018-08-11T11:29:11.613Z,32.8
2018-08-11T11:30:14.056Z,32.7
2018-08-11T11:31:16.234Z,32.7
2018-08-11T11:32:18.688Z,32.7
2018-08-11T11:33:21.130Z,32.7
2018-08-11T11:34:23.277Z,32.7
2018-08-11T11:35:25.200Z,32.7
2018-08-11T11:36:27.394Z,32.7
2018-08-11T11:37:29.612Z,32.7
2018-08-11T11:38:31.787Z,32.7
2018-08-11T11:39:33.692Z,32.7
2018-08-11T11:40:36.151Z,32.8
2018-08-11T11:41:38.341Z,32.8
2018-08-11T11:42:40.229Z,32.8
2018-08-11T11:43:42.502Z,32.7
2018-08-11T11:44:44.680Z,32.8
2018-08-11T11:45:47.127Z,32.8
2018-08-11T11:46:49.586Z,32.8
2018-08-11T11:47:51.196Z,32.8
2018-08-11T11:48:53.641Z,32.8
2018-08-11T11:49:56.093Z,32.8
2018-08-11T11:50:57.993Z,32.8
2018-08-11T11:52:00.146Z,32.8
2018-08-11T11:53:02.358Z,32.8
2018-08-11T11:54:04.526Z,32.8
2018-08-11T11:55:06.731Z,32.8
2018-08-11T11:56:09.179Z,32.8
2018-08-11T11:57:11.369Z,32.8
2018-08-11T11:58:13.817Z,32.8
2018-08-11T11:59:15.991Z,32.8
2018-08-11T12:00:18.159Z,32.8
2018-08-11T12:01:20.327Z,32.8
2018-08-11T12:02:22.497Z,32.8
2018-08-11T12:03:24.951Z,32.8
2018-08-11T12:04:27.140Z,32.8
2018-08-11T12:05:29.324Z,32.8
2018-08-11T12:06:31.239Z,32.8
2018-08-11T12:07:33.690Z,32.8
2018-08-11T12:08:35.298Z,32.8
2018-08-11T12:09:37.471Z,32.8
2018-08-11T12:10:39.670Z,32.8
2018-08-11T12:11:41.850Z,32.8
2018-08-11T12:12:43.723Z,32.8
2018-08-11T12:13:46.175Z,32.8
2018-08-11T12:14:48.356Z,32.8
2018-08-11T12:15:50.268Z,32.8
2018-08-11T12:16:52.437Z,32.8
2018-08-11T12:17:54.617Z,32.8
2018-08-11T12:18:57.087Z,32.8
2018-08-11T12:19:58.960Z,32.8
2018-08-11T12:21:01.408Z,32.8
2018-08-11T12:22:03.338Z,32.8
2018-08-11T12:23:05.514Z,32.8
2018-08-11T12:24:07.693Z,32.8
2018-08-11T12:25:09.579Z,32.8
2018-08-11T12:26:12.037Z,32.8
2018-08-11T12:27:14.479Z,32.8
2018-08-11T12:28:16.402Z,32.8
2018-08-11T12:29:18.313Z,32.8
2018-08-11T12:30:20.805Z,32.8
2018-08-11T12:31:23.246Z,32.8
2018-08-11T12:32:25.137Z,32.8
2018-08-11T12:33:27.610Z,32.8
2018-08-11T12:34:30.054Z,32.8
2018-08-11T12:35:32.523Z,32.8
2018-08-11T12:36:34.978Z,32.8
2018-08-11T12:37:36.867Z,32.8
2018-08-11T12:38:39.306Z,32.8
2018-08-11T12:39:41.751Z,32.8
2018-08-11T12:40:44.196Z,32.8
2018-08-11T12:41:46.120Z,32.8
2018-08-11T12:42:48.287Z,32.8
2018-08-11T12:43:50.424Z,32.8
2018-08-11T12:44:52.609Z,32.8
2018-08-11T12:45:54.340Z,32.8
2018-08-11T12:46:56.953Z,32.8
2018-08-11T12:47:59.401Z,32.8
2018-08-11T12:49:01.607Z,32.8
2018-08-11T12:50:04.059Z,32.8
2018-08-11T12:51:06.238Z,32.8
2018-08-11T12:52:08.417Z,32.8
2018-08-11T12:53:10.349Z,32.8
2018-08-11T12:54:12.522Z,32.8
2018-08-11T12:55:14.400Z,32.8
2018-08-11T12:56:16.568Z,32.8
2018-08-11T12:57:18.489Z,32.8
2018-08-11T12:58:20.666Z,32.8
2018-08-11T12:59:22.828Z,32.8
2018-08-11T13:00:25.278Z,32.8
2018-08-11T13:01:27.549Z,32.8
2018-08-11T13:02:29.745Z,32.8
2018-08-11T13:03:32.208Z,32.8
2018-08-11T13:04:34.409Z,32.8
2018-08-11T13:05:36.860Z,32.8
2018-08-11T13:06:39.316Z,32.8
2018-08-11T13:07:41.761Z,32.8
2018-08-11T13:08:44.237Z,32.8
2018-08-11T13:09:46.426Z,32.8
2018-08-11T13:10:48.330Z,32.8
2018-08-11T13:11:50.219Z,32.8
2018-08-11T13:12:52.665Z,32.8
2018-08-11T13:13:54.825Z,32.8
2018-08-11T13:14:56.979Z,32.8
2018-08-11T13:15:59.447Z,32.8
2018-08-11T13:17:01.919Z,32.8
2018-08-11T13:18:03.805Z,32.8
2018-08-11T13:19:05.742Z,32.8
2018-08-11T13:20:07.916Z,32.8
2018-08-11T13:21:10.112Z,32.8
2018-08-11T13:22:12.273Z,32.8
2018-08-11T13:23:14.454Z,32.8
2018-08-11T13:24:16.674Z,32.8
2018-08-11T13:25:18.576Z,32.8
2018-08-11T13:26:20.762Z,32.8
2018-08-11T13:27:23.220Z,32.8
2018-08-11T13:28:25.110Z,32.8
2018-08-11T13:29:27.557Z,32.8
2018-08-11T13:30:29.441Z,32.8
2018-08-11T13:31:31.887Z,32.8
2018-08-11T13:32:34.337Z,32.8
2018-08-11T13:33:36.784Z,32.8
2018-08-11T13:34:38.729Z,32.8
2018-08-11T13:35:40.914Z,32.8
2018-08-11T13:36:43.390Z,32.8
2018-08-11T13:37:45.850Z,32.8
2018-08-11T13:38:48.308Z,32.8
2018-08-11T13:39:50.767Z,32.8
2018-08-11T13:40:52.946Z,32.8
2018-08-11T13:41:55.132Z,32.8
2018-08-11T13:42:57.310Z,32.8
2018-08-11T13:43:59.751Z,32.8
2018-08-11T13:45:02.198Z,32.8
2018-08-11T13:46:04.374Z,32.8
2018-08-11T13:47:06.854Z,32.8
2018-08-11T13:48:09.301Z,32.8
2018-08-11T13:49:11.746Z,32.8
2018-08-11T13:50:13.911Z,32.8
2018-08-11T13:51:16.358Z,32.8
2018-08-11T13:52:18.535Z,32.8